createdAt,value
2022-11-04T00:02:41.890Z,99347.91
2022-11-04T00:08:02.608Z,99374.44
2022-11-04T00:13:04.930Z,99366.31
2022-11-04T00:18:07.263Z,99389.34
2022-11-04T00:23:27.800Z,99327.88
2022-11-04T00:28:44.824Z,99356.06
2022-11-04T00:33:49.042Z,99396.53
2022-11-04T00:38:51.388Z,99349.66
2022-11-04T00:43:59.022Z,99346.31
2022-11-04T00:49:01.412Z,99353.28
2022-11-04T00:54:03.590Z,99353.56
2022-11-04T00:59:08.047Z,99317.75
2022-11-04T01:04:13.274Z,99388.75
2022-11-04T01:09:15.438Z,99343.09
2022-11-04T01:14:17.614Z,99284.31
2022-11-04T01:19:19.859Z,99215.94
2022-11-04T01:24:22.026Z,99363.06
2022-11-04T01:29:24.209Z,99357.28
2022-11-04T01:34:26.443Z,99331.66
2022-11-04T01:39:28.773Z,99362.28
2022-11-04T01:44:43.142Z,99389.81
2022-11-04T01:49:49.710Z,99368.94
2022-11-04T01:54:52.696Z,99363.81
2022-11-04T01:59:55.643Z,99371.13
2022-11-04T02:04:59.083Z,99206.28
2022-11-04T02:10:01.362Z,99358.91
2022-11-04T02:15:05.678Z,99354.50
2022-11-04T02:20:13.928Z,99395.97
2022-11-04T02:25:35.481Z,99362.63
2022-11-04T02:30:50.982Z,99311.53
2022-11-04T02:35:59.285Z,99396.03
2022-11-04T02:41:35.189Z,99351.59
2022-11-04T02:46:40.872Z,99286.09
2022-11-04T02:52:04.338Z,99391.94
2022-11-04T02:57:08.167Z,99360.81
2022-11-04T03:02:16.002Z,99350.63
2022-11-04T03:07:26.964Z,99310.50
2022-11-04T03:12:34.773Z,99330.81
2022-11-04T03:17:47.659Z,99322.81
2022-11-04T03:22:50.043Z,99334.16
2022-11-04T03:28:11.655Z,99277.41
2022-11-04T03:33:32.258Z,99378.59
2022-11-04T03:38:35.378Z,99336.88
2022-11-04T03:43:37.753Z,99360.00
2022-11-04T03:48:42.085Z,99356.56
2022-11-04T03:53:44.496Z,99299.31
2022-11-04T03:59:27.524Z,99360.22
2022-11-04T04:04:33.073Z,99369.00
2022-11-04T04:09:42.666Z,99377.22
2022-11-04T04:14:51.730Z,99312.72
2022-11-04T04:19:57.739Z,99344.75
2022-11-04T04:25:20.878Z,99323.53
2022-11-04T04:30:23.219Z,99341.69
2022-11-04T04:35:43.181Z,99319.97
2022-11-04T04:41:06.540Z,99369.91
2022-11-04T04:46:08.774Z,99364.56
2022-11-04T04:51:11.216Z,99337.22
2022-11-04T04:56:13.380Z,99353.41
2022-11-04T05:01:15.737Z,99347.91
2022-11-04T05:06:17.985Z,99325.09
2022-11-04T05:11:24.445Z,99408.56
2022-11-04T05:16:29.650Z,99378.59
2022-11-04T05:21:32.065Z,99289.06
2022-11-04T05:26:34.281Z,99414.66
2022-11-04T05:31:38.333Z,99410.81
2022-11-04T05:36:43.626Z,99358.09
2022-11-04T05:41:45.948Z,99409.88
2022-11-04T05:46:48.334Z,99383.72
2022-11-04T05:51:50.546Z,99365.03
2022-11-04T05:56:53.088Z,99408.13
2022-11-04T06:01:55.404Z,99401.31
2022-11-04T06:06:57.823Z,99357.34
2022-11-04T06:12:00.037Z,99410.34
2022-11-04T06:17:02.796Z,99405.78
2022-11-04T06:22:05.841Z,99334.66
2022-11-04T06:27:08.541Z,99375.97
2022-11-04T06:32:13.226Z,99435.22
2022-11-04T06:37:15.568Z,99407.81
2022-11-04T06:42:22.120Z,99413.97
2022-11-04T06:47:26.554Z,99392.16
2022-11-04T06:52:28.728Z,99434.06
2022-11-04T06:57:30.834Z,99367.41
2022-11-04T07:02:33.128Z,99410.34
2022-11-04T07:07:35.738Z,99447.97
2022-11-04T07:12:38.232Z,99461.47
2022-11-04T07:17:40.472Z,99205.56
2022-11-04T07:22:42.785Z,99435.22
2022-11-04T07:27:44.938Z,99401.88
2022-11-04T07:32:47.380Z,99428.47
2022-11-04T07:38:07.369Z,99459.53
2022-11-04T07:43:10.195Z,99414.69
2022-11-04T07:48:13.546Z,99368.34
2022-11-04T07:53:15.802Z,99450.44
2022-11-04T07:58:23.306Z,99463.09
2022-11-04T08:03:25.599Z,99405.25
2022-11-04T08:08:29.262Z,99442.22
2022-11-04T08:13:33.217Z,99467.50
2022-11-04T08:18:35.447Z,99440.59
2022-11-04T08:23:38.092Z,99449.09
2022-11-04T08:28:41.015Z,99456.63
2022-11-04T08:33:43.877Z,99403.09
2022-11-04T08:38:47.440Z,99418.16
2022-11-04T08:43:50.168Z,99450.97
2022-11-04T08:48:52.443Z,99403.66
2022-11-04T08:53:56.447Z,99405.63
2022-11-04T08:58:59.846Z,99409.06
2022-11-04T09:04:02.239Z,99412.56
2022-11-04T09:09:06.395Z,99420.47
2022-11-04T09:14:09.653Z,99410.00
2022-11-04T09:19:12.410Z,99390.00
2022-11-04T09:24:14.776Z,99418.06
2022-11-04T09:29:17.039Z,99462.88
2022-11-04T09:34:20.289Z,99419.22
2022-11-04T09:39:23.639Z,99435.88
2022-11-04T09:44:29.472Z,99447.66
2022-11-04T09:49:36.946Z,99375.69
2022-11-04T09:55:09.313Z,99373.31
2022-11-04T10:00:18.013Z,99378.53
2022-11-04T10:05:35.557Z,99448.94
2022-11-04T10:10:40.772Z,99453.28
2022-11-04T10:15:55.520Z,99461.09
2022-11-04T10:21:22.649Z,99408.38
2022-11-04T10:26:38.482Z,99412.78
2022-11-04T10:31:42.678Z,99446.78
2022-11-04T10:36:48.071Z,99399.47
2022-11-04T10:41:50.541Z,99377.03
2022-11-04T10:47:02.760Z,99344.63
2022-11-04T10:52:07.139Z,99413.41
2022-11-04T10:57:12.853Z,99448.44
2022-11-04T11:02:15.278Z,99345.56
2022-11-04T11:07:19.825Z,99439.19
2022-11-04T11:12:50.514Z,99422.97
2022-11-04T11:18:21.480Z,99380.28
2022-11-04T11:23:42.410Z,99440.63
2022-11-04T11:28:58.608Z,99460.00
2022-11-04T11:34:06.544Z,99466.91
2022-11-04T11:39:12.392Z,99478.19
2022-11-04T11:44:54.144Z,99470.03
2022-11-04T11:50:34.593Z,99473.41
2022-11-04T11:55:37.604Z,99198.44
2022-11-04T12:00:59.118Z,99475.81
2022-11-04T12:06:18.823Z,99392.47
2022-11-04T12:11:32.008Z,99456.50
2022-11-04T12:16:58.009Z,99493.28
2022-11-04T12:22:05.818Z,99462.25
2022-11-04T12:27:13.135Z,99492.16
2022-11-04T12:32:56.653Z,99485.50
2022-11-04T12:38:28.016Z,99372.78
2022-11-04T12:43:54.471Z,99502.72
2022-11-04T12:49:35.609Z,99495.97
2022-11-04T12:54:37.857Z,99495.72
2022-11-04T13:00:10.363Z,99454.44
2022-11-04T13:05:22.065Z,99501.94
2022-11-04T13:10:41.303Z,99363.00
2022-11-04T13:15:50.308Z,99505.38
2022-11-04T13:21:03.008Z,99495.38
2022-11-04T13:26:07.610Z,99476.00
2022-11-04T13:31:23.097Z,99452.31
2022-11-04T13:36:25.259Z,99511.34
2022-11-04T13:41:34.562Z,99522.50
2022-11-04T13:46:36.961Z,99475.91
2022-11-04T13:51:42.830Z,99524.25
2022-11-04T13:56:45.083Z,99527.72
2022-11-04T14:01:47.679Z,99525.16
2022-11-04T14:06:57.952Z,99525.19
2022-11-04T14:12:14.800Z,99538.19
2022-11-04T14:17:35.565Z,99527.09
2022-11-04T14:22:48.399Z,99444.13
2022-11-04T14:27:52.656Z,99513.44
2022-11-04T14:33:01.366Z,99539.88
2022-11-04T14:38:30.912Z,99467.03
2022-11-04T14:43:35.431Z,99377.09
2022-11-04T14:48:43.449Z,99338.31
2022-11-04T14:53:45.769Z,99562.16
2022-11-04T14:59:00.029Z,99561.47
2022-11-04T15:04:22.035Z,99523.41
2022-11-04T15:09:27.358Z,99572.47
2022-11-04T15:14:29.663Z,99576.81
2022-11-04T15:19:34.343Z,99530.91
2022-11-04T15:24:36.652Z,99481.66
2022-11-04T15:29:38.911Z,99455.22
2022-11-04T15:34:41.283Z,99464.88
2022-11-04T15:39:45.872Z,99453.09
2022-11-04T15:44:51.508Z,99533.84
2022-11-04T15:49:54.898Z,99607.59
2022-11-04T15:54:59.570Z,99559.78
2022-11-04T16:00:16.165Z,99612.06
2022-11-04T16:05:35.960Z,99567.94
2022-11-04T16:10:40.816Z,99559.03
2022-11-04T16:15:59.949Z,99589.94
2022-11-04T16:21:08.490Z,99530.88
2022-11-04T16:26:10.967Z,99626.56
2022-11-04T16:31:23.249Z,99624.09
2022-11-04T16:36:28.538Z,99599.19
2022-11-04T16:41:41.201Z,99498.94
2022-11-04T16:46:43.461Z,99555.00
2022-11-04T16:51:47.773Z,99605.25
2022-11-04T16:56:50.162Z,99646.31
2022-11-04T17:01:52.669Z,99644.63
2022-11-04T17:06:54.981Z,99551.16
2022-11-04T17:11:59.380Z,99588.91
2022-11-04T17:17:02.283Z,99509.72
2022-11-04T17:22:06.648Z,99556.28
2022-11-04T17:27:08.962Z,99624.16
2022-11-04T17:32:11.190Z,99628.88
2022-11-04T17:37:14.424Z,99637.09
2022-11-04T17:42:35.106Z,99565.75
2022-11-04T17:47:38.155Z,99570.19
2022-11-04T17:52:42.360Z,99498.88
2022-11-04T17:57:44.551Z,99627.06
2022-11-04T18:02:46.827Z,99630.13
2022-11-04T18:07:49.092Z,99611.63
2022-11-04T18:12:51.384Z,99600.88
2022-11-04T18:17:53.781Z,99642.13
2022-11-04T18:22:56.030Z,99585.75
2022-11-04T18:27:58.907Z,99541.91
2022-11-04T18:33:01.100Z,99658.66
2022-11-04T18:38:03.335Z,99602.78
2022-11-04T18:43:08.855Z,99685.97
2022-11-04T18:48:11.993Z,99572.00
2022-11-04T18:53:15.376Z,99695.28
2022-11-04T18:58:17.833Z,99671.53
2022-11-04T19:03:21.329Z,99613.22
2022-11-04T19:08:23.603Z,99645.69
2022-11-04T19:13:25.763Z,99699.47
2022-11-04T19:18:28.064Z,99683.63
2022-11-04T19:23:32.186Z,99672.13
2022-11-04T19:28:47.221Z,99681.59
2022-11-04T19:33:50.987Z,99595.09
2022-11-04T19:38:55.598Z,99649.59
2022-11-04T19:43:57.888Z,99645.22
2022-11-04T19:49:03.140Z,99726.13
2022-11-04T19:54:05.951Z,99696.50
2022-11-04T19:59:09.503Z,99682.94
2022-11-04T20:04:12.771Z,99622.34
2022-11-04T20:09:15.101Z,99743.19
2022-11-04T20:14:18.143Z,99724.53
2022-11-04T20:19:22.907Z,99625.84
2022-11-04T20:24:25.555Z,99636.78
2022-11-04T20:29:27.715Z,99751.78
2022-11-04T20:34:32.895Z,99753.41
2022-11-04T20:39:35.501Z,99742.91
2022-11-04T20:44:37.807Z,99634.38
2022-11-04T20:49:39.944Z,99730.81
2022-11-04T20:54:42.059Z,99612.88
2022-11-04T20:59:44.255Z,99767.06
2022-11-04T21:04:46.382Z,99778.31
2022-11-04T21:09:51.330Z,99702.47
2022-11-04T21:14:53.572Z,99785.06
2022-11-04T21:19:56.056Z,99669.34
2022-11-04T21:24:58.206Z,99786.03
2022-11-04T21:30:00.794Z,99764.00
2022-11-04T21:35:02.955Z,99718.03
2022-11-04T21:40:06.090Z,99683.25
2022-11-04T21:45:09.553Z,99806.66
2022-11-04T21:50:17.713Z,99807.56
2022-11-04T21:55:20.350Z,99794.03
2022-11-04T22:00:22.675Z,99786.09
2022-11-04T22:05:24.851Z,99626.00
2022-11-04T22:10:28.178Z,99803.06
2022-11-04T22:15:49.802Z,99783.38
2022-11-04T22:20:52.681Z,99783.22
2022-11-04T22:26:02.793Z,99778.47
2022-11-04T22:31:11.200Z,99741.44
2022-11-04T22:36:14.257Z,99783.38
2022-11-04T22:41:19.479Z,99831.13
2022-11-04T22:46:24.513Z,99694.38
2022-11-04T22:51:26.861Z,99834.50
2022-11-04T22:56:29.180Z,99830.31
2022-11-04T23:01:33.270Z,99683.94
2022-11-04T23:06:35.485Z,99733.13
2022-11-04T23:11:56.123Z,99819.38
2022-11-04T23:17:17.252Z,99844.03
2022-11-04T23:22:37.808Z,99847.44
2022-11-04T23:28:08.094Z,99796.16
2022-11-04T23:33:11.270Z,99856.56
2022-11-04T23:38:13.663Z,99789.44
2022-11-04T23:43:15.781Z,99720.19
2022-11-04T23:48:37.604Z,99777.75
2022-11-04T23:53:58.224Z,99842.41
2022-11-04T23:59:19.151Z,99871.41
